sensor_id;sensor_type;location;lat;lon;timestamp;P1;durP1;ratioP1;P2;durP2;ratioP2
10805;SDS011;5455;53.224;6.000;2023-03-11T00:00:24;0.77;;;0.40;;
10805;SDS011;5455;53.224;6.000;2023-03-11T00:02:54;2.23;;;0.43;;
10805;SDS011;5455;53.224;6.000;2023-03-11T00:05:26;2.43;;;0.47;;
10805;SDS011;5455;53.224;6.000;2023-03-11T00:07:55;1.30;;;0.40;;
10805;SDS011;5455;53.224;6.000;2023-03-11T00:10:24;1.60;;;0.40;;
10805;SDS011;5455;53.224;6.000;2023-03-11T00:12:56;3.47;;;0.50;;
10805;SDS011;5455;53.224;6.000;2023-03-11T00:15:24;4.10;;;0.50;;
10805;SDS011;5455;53.224;6.000;2023-03-11T00:17:51;1.13;;;0.30;;
10805;SDS011;5455;53.224;6.000;2023-03-11T00:20:28;5.73;;;0.60;;
10805;SDS011;5455;53.224;6.000;2023-03-11T00:22:57;2.63;;;0.30;;
10805;SDS011;5455;53.224;6.000;2023-03-11T00:25:26;2.67;;;0.53;;
10805;SDS011;5455;53.224;6.000;2023-03-11T00:27:55;3.10;;;0.70;;
10805;SDS011;5455;53.224;6.000;2023-03-11T00:30:23;2.53;;;0.50;;
10805;SDS011;5455;53.224;6.000;2023-03-11T00:32:52;3.93;;;0.70;;
10805;SDS011;5455;53.224;6.000;2023-03-11T00:35:21;2.10;;;0.30;;
10805;SDS011;5455;53.224;6.000;2023-03-11T00:37:52;2.00;;;0.37;;
10805;SDS011;5455;53.224;6.000;2023-03-11T00:40:22;1.53;;;0.30;;
10805;SDS011;5455;53.224;6.000;2023-03-11T00:42:51;1.00;;;0.30;;
10805;SDS011;5455;53.224;6.000;2023-03-11T00:45:21;1.43;;;0.43;;
10805;SDS011;5455;53.224;6.000;2023-03-11T00:47:49;1.27;;;0.53;;
10805;SDS011;5455;53.224;6.000;2023-03-11T00:50:19;2.40;;;0.30;;
10805;SDS011;5455;53.224;6.000;2023-03-11T00:52:52;0.93;;;0.20;;
10805;SDS011;5455;53.224;6.000;2023-03-11T00:55:23;0.40;;;0.33;;
10805;SDS011;5455;53.224;6.000;2023-03-11T00:57:56;1.00;;;0.30;;
10805;SDS011;5455;53.224;6.000;2023-03-11T01:00:30;1.93;;;0.30;;
10805;SDS011;5455;53.224;6.000;2023-03-11T01:02:58;1.43;;;0.53;;
10805;SDS011;5455;53.224;6.000;2023-03-11T01:05:27;1.60;;;0.20;;
10805;SDS011;5455;53.224;6.000;2023-03-11T01:07:56;2.60;;;0.50;;
10805;SDS011;5455;53.224;6.000;2023-03-11T01:10:25;2.07;;;0.40;;
10805;SDS011;5455;53.224;6.000;2023-03-11T01:12:53;1.90;;;0.40;;
10805;SDS011;5455;53.224;6.000;2023-03-11T01:15:22;1.33;;;0.40;;
10805;SDS011;5455;53.224;6.000;2023-03-11T01:17:54;0.70;;;0.23;;
10805;SDS011;5455;53.224;6.000;2023-03-11T01:20:22;2.30;;;0.37;;
10805;SDS011;5455;53.224;6.000;2023-03-11T01:22:49;1.00;;;0.20;;
10805;SDS011;5455;53.224;6.000;2023-03-11T01:25:17;1.10;;;0.30;;
10805;SDS011;5455;53.224;6.000;2023-03-11T01:27:45;2.10;;;0.60;;
10805;SDS011;5455;53.224;6.000;2023-03-11T01:30:14;1.33;;;0.20;;
10805;SDS011;5455;53.224;6.000;2023-03-11T01:32:44;2.33;;;0.30;;
10805;SDS011;5455;53.224;6.000;2023-03-11T01:35:12;3.93;;;0.40;;
10805;SDS011;5455;53.224;6.000;2023-03-11T01:37:41;2.53;;;0.37;;
10805;SDS011;5455;53.224;6.000;2023-03-11T01:40:11;2.30;;;0.43;;
10805;SDS011;5455;53.224;6.000;2023-03-11T01:42:44;3.23;;;0.40;;
10805;SDS011;5455;53.224;6.000;2023-03-11T01:47:56;2.63;;;0.50;;
10805;SDS011;5455;53.224;6.000;2023-03-11T01:50:24;4.40;;;0.50;;
10805;SDS011;5455;53.224;6.000;2023-03-11T01:52:53;2.47;;;0.30;;
10805;SDS011;5455;53.224;6.000;2023-03-11T01:55:20;1.70;;;0.30;;
10805;SDS011;5455;53.224;6.000;2023-03-11T01:57:47;1.73;;;0.30;;
10805;SDS011;5455;53.224;6.000;2023-03-11T02:00:16;4.07;;;0.30;;
10805;SDS011;5455;53.224;6.000;2023-03-11T02:02:52;2.97;;;0.43;;
10805;SDS011;5455;53.224;6.000;2023-03-11T02:05:22;1.57;;;0.50;;
10805;SDS011;5455;53.224;6.000;2023-03-11T02:07:51;0.77;;;0.30;;
10805;SDS011;5455;53.224;6.000;2023-03-11T02:10:24;0.63;;;0.30;;
10805;SDS011;5455;53.224;6.000;2023-03-11T02:12:53;2.67;;;0.43;;
10805;SDS011;5455;53.224;6.000;2023-03-11T02:15:23;1.50;;;0.50;;
10805;SDS011;5455;53.224;6.000;2023-03-11T02:17:51;2.87;;;0.47;;
10805;SDS011;5455;53.224;6.000;2023-03-11T02:23:12;1.13;;;0.23;;
10805;SDS011;5455;53.224;6.000;2023-03-11T02:25:45;2.77;;;0.40;;
10805;SDS011;5455;53.224;6.000;2023-03-11T02:28:20;1.60;;;0.40;;
10805;SDS011;5455;53.224;6.000;2023-03-11T02:30:48;1.10;;;0.40;;
10805;SDS011;5455;53.224;6.000;2023-03-11T02:33:17;3.23;;;0.40;;
10805;SDS011;5455;53.224;6.000;2023-03-11T02:35:46;1.37;;;0.20;;
10805;SDS011;5455;53.224;6.000;2023-03-11T02:38:14;1.70;;;0.40;;
10805;SDS011;5455;53.224;6.000;2023-03-11T02:40:49;0.90;;;0.37;;
10805;SDS011;5455;53.224;6.000;2023-03-11T02:43:25;1.20;;;0.37;;
10805;SDS011;5455;53.224;6.000;2023-03-11T02:45:59;2.63;;;0.43;;
10805;SDS011;5455;53.224;6.000;2023-03-11T02:48:28;3.27;;;0.40;;
10805;SDS011;5455;53.224;6.000;2023-03-11T02:50:55;1.13;;;0.27;;
10805;SDS011;5455;53.224;6.000;2023-03-11T02:53:23;1.13;;;0.30;;
10805;SDS011;5455;53.224;6.000;2023-03-11T02:55:54;2.83;;;0.40;;
10805;SDS011;5455;53.224;6.000;2023-03-11T02:58:21;4.13;;;0.33;;
10805;SDS011;5455;53.224;6.000;2023-03-11T03:00:47;2.10;;;0.30;;
10805;SDS011;5455;53.224;6.000;2023-03-11T03:03:17;3.40;;;0.30;;
10805;SDS011;5455;53.224;6.000;2023-03-11T03:05:44;2.13;;;0.50;;
10805;SDS011;5455;53.224;6.000;2023-03-11T03:08:12;1.67;;;0.30;;
10805;SDS011;5455;53.224;6.000;2023-03-11T03:10:40;2.97;;;0.50;;
10805;SDS011;5455;53.224;6.000;2023-03-11T03:13:07;3.03;;;0.40;;
10805;SDS011;5455;53.224;6.000;2023-03-11T03:15:34;2.90;;;0.40;;
10805;SDS011;5455;53.224;6.000;2023-03-11T03:18:01;0.80;;;0.37;;
10805;SDS011;5455;53.224;6.000;2023-03-11T03:20:28;1.17;;;0.27;;
10805;SDS011;5455;53.224;6.000;2023-03-11T03:22:58;1.60;;;0.30;;
10805;SDS011;5455;53.224;6.000;2023-03-11T03:25:28;0.63;;;0.33;;
10805;SDS011;5455;53.224;6.000;2023-03-11T03:27:57;3.23;;;0.40;;
10805;SDS011;5455;53.224;6.000;2023-03-11T03:30:25;0.53;;;0.20;;
10805;SDS011;5455;53.224;6.000;2023-03-11T03:32:54;2.13;;;0.40;;
10805;SDS011;5455;53.224;6.000;2023-03-11T03:35:22;4.13;;;0.40;;
10805;SDS011;5455;53.224;6.000;2023-03-11T03:38:00;1.07;;;0.40;;
10805;SDS011;5455;53.224;6.000;2023-03-11T03:40:28;1.20;;;0.33;;
10805;SDS011;5455;53.224;6.000;2023-03-11T03:42:57;1.60;;;0.30;;
10805;SDS011;5455;53.224;6.000;2023-03-11T03:45:25;1.17;;;0.37;;
10805;SDS011;5455;53.224;6.000;2023-03-11T03:47:52;0.83;;;0.30;;
10805;SDS011;5455;53.224;6.000;2023-03-11T03:50:21;1.73;;;0.40;;
10805;SDS011;5455;53.224;6.000;2023-03-11T03:52:51;1.13;;;0.50;;
10805;SDS011;5455;53.224;6.000;2023-03-11T03:55:20;2.20;;;0.50;;
10805;SDS011;5455;53.224;6.000;2023-03-11T03:57:47;0.97;;;0.30;;
10805;SDS011;5455;53.224;6.000;2023-03-11T04:00:15;4.30;;;0.40;;
10805;SDS011;5455;53.224;6.000;2023-03-11T04:02:47;1.10;;;0.50;;
10805;SDS011;5455;53.224;6.000;2023-03-11T04:05:23;1.53;;;0.50;;
10805;SDS011;5455;53.224;6.000;2023-03-11T04:07:53;1.43;;;0.50;;
10805;SDS011;5455;53.224;6.000;2023-03-11T04:10:21;3.67;;;0.40;;
10805;SDS011;5455;53.224;6.000;2023-03-11T04:12:49;1.90;;;0.33;;
10805;SDS011;5455;53.224;6.000;2023-03-11T04:15:16;2.23;;;0.60;;
10805;SDS011;5455;53.224;6.000;2023-03-11T04:17:43;1.20;;;0.40;;
10805;SDS011;5455;53.224;6.000;2023-03-11T04:20:11;2.67;;;0.40;;
10805;SDS011;5455;53.224;6.000;2023-03-11T04:22:41;0.53;;;0.23;;
10805;SDS011;5455;53.224;6.000;2023-03-11T04:25:08;1.13;;;0.40;;
10805;SDS011;5455;53.224;6.000;2023-03-11T04:27:36;1.30;;;0.40;;
10805;SDS011;5455;53.224;6.000;2023-03-11T04:30:05;2.37;;;0.40;;
10805;SDS011;5455;53.224;6.000;2023-03-11T04:32:33;0.30;;;0.20;;
10805;SDS011;5455;53.224;6.000;2023-03-11T04:35:02;1.73;;;0.50;;
10805;SDS011;5455;53.224;6.000;2023-03-11T04:37:30;2.20;;;0.30;;
10805;SDS011;5455;53.224;6.000;2023-03-11T04:39:56;0.57;;;0.30;;
10805;SDS011;5455;53.224;6.000;2023-03-11T04:42:23;2.10;;;0.37;;
10805;SDS011;5455;53.224;6.000;2023-03-11T04:44:51;2.87;;;0.40;;
10805;SDS011;5455;53.224;6.000;2023-03-11T04:47:19;2.77;;;0.30;;
10805;SDS011;5455;53.224;6.000;2023-03-11T04:49:47;0.40;;;0.30;;
10805;SDS011;5455;53.224;6.000;2023-03-11T04:52:15;1.80;;;0.43;;
10805;SDS011;5455;53.224;6.000;2023-03-11T04:54:42;1.27;;;0.40;;
10805;SDS011;5455;53.224;6.000;2023-03-11T04:57:09;1.20;;;0.43;;
10805;SDS011;5455;53.224;6.000;2023-03-11T04:59:40;3.63;;;0.40;;
10805;SDS011;5455;53.224;6.000;2023-03-11T05:02:07;0.93;;;0.20;;
10805;SDS011;5455;53.224;6.000;2023-03-11T05:04:41;1.80;;;0.40;;
10805;SDS011;5455;53.224;6.000;2023-03-11T05:07:08;0.47;;;0.20;;
10805;SDS011;5455;53.224;6.000;2023-03-11T05:09:35;1.60;;;0.40;;
10805;SDS011;5455;53.224;6.000;2023-03-11T05:12:03;2.20;;;0.40;;
10805;SDS011;5455;53.224;6.000;2023-03-11T05:14:33;2.00;;;0.50;;
10805;SDS011;5455;53.224;6.000;2023-03-11T05:17:00;1.10;;;0.33;;
10805;SDS011;5455;53.224;6.000;2023-03-11T05:19:27;3.13;;;0.47;;
10805;SDS011;5455;53.224;6.000;2023-03-11T05:22:01;0.57;;;0.20;;
10805;SDS011;5455;53.224;6.000;2023-03-11T05:24:29;2.63;;;0.47;;
10805;SDS011;5455;53.224;6.000;2023-03-11T05:26:57;0.97;;;0.33;;
10805;SDS011;5455;53.224;6.000;2023-03-11T05:29:24;1.13;;;0.40;;
10805;SDS011;5455;53.224;6.000;2023-03-11T05:31:52;3.17;;;0.50;;
10805;SDS011;5455;53.224;6.000;2023-03-11T05:34:19;0.83;;;0.30;;
10805;SDS011;5455;53.224;6.000;2023-03-11T05:36:46;1.27;;;0.40;;
10805;SDS011;5455;53.224;6.000;2023-03-11T05:39:14;2.17;;;0.73;;
10805;SDS011;5455;53.224;6.000;2023-03-11T05:41:42;1.93;;;0.30;;
10805;SDS011;5455;53.224;6.000;2023-03-11T05:44:09;3.17;;;0.30;;
10805;SDS011;5455;53.224;6.000;2023-03-11T05:46:36;0.63;;;0.40;;
10805;SDS011;5455;53.224;6.000;2023-03-11T05:49:05;1.37;;;0.50;;
10805;SDS011;5455;53.224;6.000;2023-03-11T05:51:32;0.93;;;0.47;;
10805;SDS011;5455;53.224;6.000;2023-03-11T05:53:59;2.57;;;0.53;;
10805;SDS011;5455;53.224;6.000;2023-03-11T05:56:34;2.33;;;0.50;;
10805;SDS011;5455;53.224;6.000;2023-03-11T05:59:02;1.67;;;0.60;;
10805;SDS011;5455;53.224;6.000;2023-03-11T06:01:32;1.10;;;0.33;;
10805;SDS011;5455;53.224;6.000;2023-03-11T06:03:59;1.30;;;0.40;;
10805;SDS011;5455;53.224;6.000;2023-03-11T06:06:27;3.20;;;0.57;;
10805;SDS011;5455;53.224;6.000;2023-03-11T06:08:54;1.87;;;0.50;;
10805;SDS011;5455;53.224;6.000;2023-03-11T06:11:25;0.83;;;0.30;;
10805;SDS011;5455;53.224;6.000;2023-03-11T06:13:53;0.50;;;0.43;;
10805;SDS011;5455;53.224;6.000;2023-03-11T06:16:23;3.40;;;0.50;;
10805;SDS011;5455;53.224;6.000;2023-03-11T06:18:53;0.60;;;0.30;;
10805;SDS011;5455;53.224;6.000;2023-03-11T06:21:20;1.30;;;0.50;;
10805;SDS011;5455;53.224;6.000;2023-03-11T06:23:49;0.60;;;0.50;;
10805;SDS011;5455;53.224;6.000;2023-03-11T06:26:18;0.93;;;0.70;;
10805;SDS011;5455;53.224;6.000;2023-03-11T06:28:47;3.43;;;0.50;;
10805;SDS011;5455;53.224;6.000;2023-03-11T06:31:15;0.90;;;0.50;;
10805;SDS011;5455;53.224;6.000;2023-03-11T06:33:45;0.67;;;0.50;;
10805;SDS011;5455;53.224;6.000;2023-03-11T06:36:14;1.77;;;0.90;;
10805;SDS011;5455;53.224;6.000;2023-03-11T06:38:43;2.13;;;0.67;;
10805;SDS011;5455;53.224;6.000;2023-03-11T06:41:13;4.87;;;1.20;;
10805;SDS011;5455;53.224;6.000;2023-03-11T06:43:41;2.07;;;0.70;;
10805;SDS011;5455;53.224;6.000;2023-03-11T06:46:13;2.70;;;0.80;;
10805;SDS011;5455;53.224;6.000;2023-03-11T06:48:44;2.93;;;1.03;;
10805;SDS011;5455;53.224;6.000;2023-03-11T06:51:14;3.30;;;0.83;;
10805;SDS011;5455;53.224;6.000;2023-03-11T06:53:42;1.50;;;0.80;;
10805;SDS011;5455;53.224;6.000;2023-03-11T06:56:11;4.77;;;1.00;;
10805;SDS011;5455;53.224;6.000;2023-03-11T06:58:44;2.37;;;1.10;;
10805;SDS011;5455;53.224;6.000;2023-03-11T07:01:14;2.70;;;1.10;;
10805;SDS011;5455;53.224;6.000;2023-03-11T07:03:44;2.97;;;1.00;;
10805;SDS011;5455;53.224;6.000;2023-03-11T07:06:13;2.07;;;0.97;;
10805;SDS011;5455;53.224;6.000;2023-03-11T07:08:42;2.47;;;1.10;;
10805;SDS011;5455;53.224;6.000;2023-03-11T07:11:13;2.30;;;1.00;;
10805;SDS011;5455;53.224;6.000;2023-03-11T07:13:48;2.17;;;0.80;;
10805;SDS011;5455;53.224;6.000;2023-03-11T07:16:17;3.50;;;0.70;;
10805;SDS011;5455;53.224;6.000;2023-03-11T07:18:48;2.33;;;0.97;;
10805;SDS011;5455;53.224;6.000;2023-03-11T07:21:18;3.30;;;0.83;;
10805;SDS011;5455;53.224;6.000;2023-03-11T07:23:51;2.37;;;0.60;;
10805;SDS011;5455;53.224;6.000;2023-03-11T07:26:19;1.20;;;0.60;;
10805;SDS011;5455;53.224;6.000;2023-03-11T07:28:47;1.63;;;0.70;;
10805;SDS011;5455;53.224;6.000;2023-03-11T07:31:19;4.63;;;0.70;;
10805;SDS011;5455;53.224;6.000;2023-03-11T07:33:58;2.23;;;0.93;;
10805;SDS011;5455;53.224;6.000;2023-03-11T07:36:26;2.57;;;0.80;;
10805;SDS011;5455;53.224;6.000;2023-03-11T07:39:01;3.67;;;0.87;;
10805;SDS011;5455;53.224;6.000;2023-03-11T07:41:31;1.93;;;0.63;;
10805;SDS011;5455;53.224;6.000;2023-03-11T07:44:00;3.20;;;0.80;;
10805;SDS011;5455;53.224;6.000;2023-03-11T07:46:30;2.37;;;0.90;;
10805;SDS011;5455;53.224;6.000;2023-03-11T07:48:59;1.73;;;0.80;;
10805;SDS011;5455;53.224;6.000;2023-03-11T07:51:28;2.90;;;0.97;;
10805;SDS011;5455;53.224;6.000;2023-03-11T07:53:58;2.50;;;0.70;;
10805;SDS011;5455;53.224;6.000;2023-03-11T07:56:29;1.77;;;0.77;;
10805;SDS011;5455;53.224;6.000;2023-03-11T07:58:58;1.20;;;0.70;;
10805;SDS011;5455;53.224;6.000;2023-03-11T08:01:27;2.70;;;0.83;;
10805;SDS011;5455;53.224;6.000;2023-03-11T08:04:02;4.60;;;1.00;;
10805;SDS011;5455;53.224;6.000;2023-03-11T08:06:32;2.30;;;0.70;;
10805;SDS011;5455;53.224;6.000;2023-03-11T08:09:02;3.00;;;0.90;;
10805;SDS011;5455;53.224;6.000;2023-03-11T08:11:34;1.23;;;0.63;;
10805;SDS011;5455;53.224;6.000;2023-03-11T08:14:02;1.37;;;0.67;;
10805;SDS011;5455;53.224;6.000;2023-03-11T08:16:29;2.53;;;0.67;;
10805;SDS011;5455;53.224;6.000;2023-03-11T08:18:57;2.20;;;0.80;;
10805;SDS011;5455;53.224;6.000;2023-03-11T08:21:24;2.33;;;0.80;;
10805;SDS011;5455;53.224;6.000;2023-03-11T08:23:57;1.80;;;0.70;;
10805;SDS011;5455;53.224;6.000;2023-03-11T08:26:26;1.93;;;0.80;;
10805;SDS011;5455;53.224;6.000;2023-03-11T08:28:54;1.90;;;0.87;;
10805;SDS011;5455;53.224;6.000;2023-03-11T08:31:26;1.73;;;0.77;;
10805;SDS011;5455;53.224;6.000;2023-03-11T08:33:57;3.43;;;0.90;;
10805;SDS011;5455;53.224;6.000;2023-03-11T08:36:29;2.03;;;0.90;;
10805;SDS011;5455;53.224;6.000;2023-03-11T08:38:57;4.00;;;0.70;;
10805;SDS011;5455;53.224;6.000;2023-03-11T08:41:25;2.03;;;0.80;;
10805;SDS011;5455;53.224;6.000;2023-03-11T08:43:52;3.73;;;0.90;;
10805;SDS011;5455;53.224;6.000;2023-03-11T08:48:51;1.23;;;0.67;;
10805;SDS011;5455;53.224;6.000;2023-03-11T08:51:19;2.20;;;0.63;;
10805;SDS011;5455;53.224;6.000;2023-03-11T08:53:47;2.77;;;0.67;;
10805;SDS011;5455;53.224;6.000;2023-03-11T08:56:14;2.13;;;0.80;;
10805;SDS011;5455;53.224;6.000;2023-03-11T08:58:41;1.43;;;0.70;;
10805;SDS011;5455;53.224;6.000;2023-03-11T09:01:09;1.33;;;0.90;;
10805;SDS011;5455;53.224;6.000;2023-03-11T09:03:37;2.00;;;0.70;;
10805;SDS011;5455;53.224;6.000;2023-03-11T09:06:06;2.60;;;0.70;;
10805;SDS011;5455;53.224;6.000;2023-03-11T09:08:35;3.03;;;0.90;;
10805;SDS011;5455;53.224;6.000;2023-03-11T09:11:02;1.50;;;0.90;;
10805;SDS011;5455;53.224;6.000;2023-03-11T09:13:31;4.50;;;0.90;;
10805;SDS011;5455;53.224;6.000;2023-03-11T09:15:58;1.17;;;0.67;;
10805;SDS011;5455;53.224;6.000;2023-03-11T09:18:25;1.10;;;0.67;;
10805;SDS011;5455;53.224;6.000;2023-03-11T09:20:54;2.50;;;0.77;;
10805;SDS011;5455;53.224;6.000;2023-03-11T09:23:24;3.00;;;0.60;;
10805;SDS011;5455;53.224;6.000;2023-03-11T09:25:52;3.00;;;0.80;;
10805;SDS011;5455;53.224;6.000;2023-03-11T09:28:19;1.77;;;0.63;;
10805;SDS011;5455;53.224;6.000;2023-03-11T09:30:46;3.40;;;0.90;;
10805;SDS011;5455;53.224;6.000;2023-03-11T09:33:12;4.50;;;1.20;;
10805;SDS011;5455;53.224;6.000;2023-03-11T09:35:39;2.00;;;0.63;;
10805;SDS011;5455;53.224;6.000;2023-03-11T09:38:06;1.67;;;0.60;;
10805;SDS011;5455;53.224;6.000;2023-03-11T09:44:01;2.97;;;0.70;;
10805;SDS011;5455;53.224;6.000;2023-03-11T09:52:03;3.57;;;0.57;;
10805;SDS011;5455;53.224;6.000;2023-03-11T09:54:39;1.47;;;0.70;;
10805;SDS011;5455;53.224;6.000;2023-03-11T09:57:12;3.20;;;0.70;;
10805;SDS011;5455;53.224;6.000;2023-03-11T09:59:43;4.90;;;0.80;;
10805;SDS011;5455;53.224;6.000;2023-03-11T10:02:14;2.47;;;1.07;;
10805;SDS011;5455;53.224;6.000;2023-03-11T10:04:49;3.60;;;1.23;;
10805;SDS011;5455;53.224;6.000;2023-03-11T10:07:24;2.20;;;0.87;;
10805;SDS011;5455;53.224;6.000;2023-03-11T10:09:57;2.90;;;0.60;;
10805;SDS011;5455;53.224;6.000;2023-03-11T10:12:48;2.70;;;0.80;;
10805;SDS011;5455;53.224;6.000;2023-03-11T10:15:23;1.70;;;0.73;;
10805;SDS011;5455;53.224;6.000;2023-03-11T10:18:23;1.23;;;0.83;;
10805;SDS011;5455;53.224;6.000;2023-03-11T10:26:12;3.20;;;0.70;;
10805;SDS011;5455;53.224;6.000;2023-03-11T10:31:19;3.00;;;0.73;;
10805;SDS011;5455;53.224;6.000;2023-03-11T10:34:01;1.60;;;0.60;;
10805;SDS011;5455;53.224;6.000;2023-03-11T10:36:36;1.93;;;0.77;;
10805;SDS011;5455;53.224;6.000;2023-03-11T10:39:08;4.13;;;0.77;;
10805;SDS011;5455;53.224;6.000;2023-03-11T10:41:46;4.70;;;0.70;;
10805;SDS011;5455;53.224;6.000;2023-03-11T10:44:21;3.37;;;0.80;;
10805;SDS011;5455;53.224;6.000;2023-03-11T10:47:00;1.50;;;0.70;;
10805;SDS011;5455;53.224;6.000;2023-03-11T10:49:28;1.60;;;0.80;;
10805;SDS011;5455;53.224;6.000;2023-03-11T10:51:55;1.83;;;0.70;;
10805;SDS011;5455;53.224;6.000;2023-03-11T10:54:31;1.87;;;0.83;;
10805;SDS011;5455;53.224;6.000;2023-03-11T10:57:04;4.73;;;0.70;;
10805;SDS011;5455;53.224;6.000;2023-03-11T10:59:45;4.17;;;0.60;;
10805;SDS011;5455;53.224;6.000;2023-03-11T11:02:23;1.40;;;0.60;;
10805;SDS011;5455;53.224;6.000;2023-03-11T11:05:37;2.73;;;0.40;;
10805;SDS011;5455;53.224;6.000;2023-03-11T11:07:42;2.03;;;0.50;;
10805;SDS011;5455;53.224;6.000;2023-03-11T11:10:26;2.47;;;0.60;;
10805;SDS011;5455;53.224;6.000;2023-03-11T11:13:02;1.10;;;0.50;;
10805;SDS011;5455;53.224;6.000;2023-03-11T11:15:53;3.57;;;0.47;;
10805;SDS011;5455;53.224;6.000;2023-03-11T11:18:24;2.83;;;0.33;;
10805;SDS011;5455;53.224;6.000;2023-03-11T11:21:08;0.73;;;0.30;;
10805;SDS011;5455;53.224;6.000;2023-03-11T11:28:44;1.13;;;0.50;;
10805;SDS011;5455;53.224;6.000;2023-03-11T11:31:23;1.60;;;0.90;;
10805;SDS011;5455;53.224;6.000;2023-03-11T11:33:53;2.33;;;0.67;;
10805;SDS011;5455;53.224;6.000;2023-03-11T11:36:26;4.43;;;0.60;;
10805;SDS011;5455;53.224;6.000;2023-03-11T11:38:57;3.27;;;0.37;;
10805;SDS011;5455;53.224;6.000;2023-03-11T11:41:25;1.10;;;0.63;;
10805;SDS011;5455;53.224;6.000;2023-03-11T11:43:56;1.43;;;0.43;;
10805;SDS011;5455;53.224;6.000;2023-03-11T11:46:30;2.03;;;0.40;;
10805;SDS011;5455;53.224;6.000;2023-03-11T11:54:30;3.33;;;0.63;;
10805;SDS011;5455;53.224;6.000;2023-03-11T11:57:17;2.87;;;0.50;;
10805;SDS011;5455;53.224;6.000;2023-03-11T11:59:47;1.60;;;0.37;;
10805;SDS011;5455;53.224;6.000;2023-03-11T12:21:02;3.80;;;0.57;;
10805;SDS011;5455;53.224;6.000;2023-03-11T12:26:51;2.67;;;0.73;;
10805;SDS011;5455;53.224;6.000;2023-03-11T12:29:25;5.90;;;0.70;;
10805;SDS011;5455;53.224;6.000;2023-03-11T12:31:58;2.93;;;0.60;;
10805;SDS011;5455;53.224;6.000;2023-03-11T12:34:27;1.10;;;0.50;;
10805;SDS011;5455;53.224;6.000;2023-03-11T12:36:57;2.37;;;0.57;;
10805;SDS011;5455;53.224;6.000;2023-03-11T12:39:32;1.83;;;0.50;;
10805;SDS011;5455;53.224;6.000;2023-03-11T12:44:50;1.23;;;0.60;;
10805;SDS011;5455;53.224;6.000;2023-03-11T12:47:20;1.50;;;0.40;;
10805;SDS011;5455;53.224;6.000;2023-03-11T12:49:54;3.50;;;0.50;;
10805;SDS011;5455;53.224;6.000;2023-03-11T12:52:50;3.13;;;0.60;;
10805;SDS011;5455;53.224;6.000;2023-03-11T12:55:23;2.00;;;0.40;;
10805;SDS011;5455;53.224;6.000;2023-03-11T12:58:30;1.07;;;0.37;;
10805;SDS011;5455;53.224;6.000;2023-03-11T13:01:10;2.50;;;0.30;;
10805;SDS011;5455;53.224;6.000;2023-03-11T13:03:46;1.20;;;0.20;;
10805;SDS011;5455;53.224;6.000;2023-03-11T13:06:40;2.27;;;0.20;;
10805;SDS011;5455;53.224;6.000;2023-03-11T13:09:13;0.83;;;0.27;;
10805;SDS011;5455;53.224;6.000;2023-03-11T13:11:46;4.03;;;0.33;;
10805;SDS011;5455;53.224;6.000;2023-03-11T13:16:49;3.23;;;0.30;;
10805;SDS011;5455;53.224;6.000;2023-03-11T13:21:56;1.87;;;0.30;;
10805;SDS011;5455;53.224;6.000;2023-03-11T13:29:44;2.70;;;0.30;;
10805;SDS011;5455;53.224;6.000;2023-03-11T13:40:27;2.17;;;0.40;;
10805;SDS011;5455;53.224;6.000;2023-03-11T13:43:11;2.13;;;0.40;;
10805;SDS011;5455;53.224;6.000;2023-03-11T13:45:45;1.37;;;0.30;;
10805;SDS011;5455;53.224;6.000;2023-03-11T13:51:42;0.27;;;0.17;;
10805;SDS011;5455;53.224;6.000;2023-03-11T13:56:50;1.87;;;0.37;;
10805;SDS011;5455;53.224;6.000;2023-03-11T13:59:24;0.80;;;0.40;;
10805;SDS011;5455;53.224;6.000;2023-03-11T14:01:56;1.83;;;0.40;;
10805;SDS011;5455;53.224;6.000;2023-03-11T14:04:27;1.10;;;0.27;;
10805;SDS011;5455;53.224;6.000;2023-03-11T14:06:56;2.83;;;0.30;;
10805;SDS011;5455;53.224;6.000;2023-03-11T14:09:25;1.60;;;0.70;;
10805;SDS011;5455;53.224;6.000;2023-03-11T14:11:53;4.60;;;2.07;;
10805;SDS011;5455;53.224;6.000;2023-03-11T14:17:19;0.73;;;0.40;;
10805;SDS011;5455;53.224;6.000;2023-03-11T14:22:36;1.80;;;0.20;;
10805;SDS011;5455;53.224;6.000;2023-03-11T14:25:05;3.30;;;0.43;;
10805;SDS011;5455;53.224;6.000;2023-03-11T14:27:49;1.77;;;0.30;;
10805;SDS011;5455;53.224;6.000;2023-03-11T14:30:20;1.50;;;0.20;;
10805;SDS011;5455;53.224;6.000;2023-03-11T14:32:57;0.60;;;0.30;;
10805;SDS011;5455;53.224;6.000;2023-03-11T14:35:31;0.97;;;0.10;;
10805;SDS011;5455;53.224;6.000;2023-03-11T14:37:59;0.93;;;0.30;;
10805;SDS011;5455;53.224;6.000;2023-03-11T14:40:30;0.80;;;0.20;;
10805;SDS011;5455;53.224;6.000;2023-03-11T14:43:03;1.30;;;0.13;;
10805;SDS011;5455;53.224;6.000;2023-03-11T14:45:33;1.23;;;0.20;;
10805;SDS011;5455;53.224;6.000;2023-03-11T14:48:11;3.67;;;0.20;;
10805;SDS011;5455;53.224;6.000;2023-03-11T14:50:45;1.53;;;0.20;;
10805;SDS011;5455;53.224;6.000;2023-03-11T14:58:39;0.50;;;0.30;;
10805;SDS011;5455;53.224;6.000;2023-03-11T15:01:11;2.13;;;0.30;;
10805;SDS011;5455;53.224;6.000;2023-03-11T15:03:44;2.73;;;0.80;;
10805;SDS011;5455;53.224;6.000;2023-03-11T15:06:15;0.97;;;0.40;;
10805;SDS011;5455;53.224;6.000;2023-03-11T15:08:54;2.70;;;0.37;;
10805;SDS011;5455;53.224;6.000;2023-03-11T15:11:43;0.77;;;0.37;;
10805;SDS011;5455;53.224;6.000;2023-03-11T15:14:25;1.30;;;0.50;;
10805;SDS011;5455;53.224;6.000;2023-03-11T15:16:53;0.93;;;0.40;;
10805;SDS011;5455;53.224;6.000;2023-03-11T15:21:56;0.67;;;0.23;;
10805;SDS011;5455;53.224;6.000;2023-03-11T15:24:26;1.40;;;0.37;;
10805;SDS011;5455;53.224;6.000;2023-03-11T15:29:34;1.70;;;0.40;;
10805;SDS011;5455;53.224;6.000;2023-03-11T15:34:58;6.17;;;1.43;;
10805;SDS011;5455;53.224;6.000;2023-03-11T15:37:30;4.33;;;1.20;;
10805;SDS011;5455;53.224;6.000;2023-03-11T15:39:57;3.47;;;0.90;;
10805;SDS011;5455;53.224;6.000;2023-03-11T15:42:37;2.57;;;0.40;;
10805;SDS011;5455;53.224;6.000;2023-03-11T15:47:47;1.90;;;0.40;;
10805;SDS011;5455;53.224;6.000;2023-03-11T15:50:17;4.67;;;1.17;;
10805;SDS011;5455;53.224;6.000;2023-03-11T15:52:52;8.27;;;4.30;;
10805;SDS011;5455;53.224;6.000;2023-03-11T15:55:21;9.33;;;4.80;;
10805;SDS011;5455;53.224;6.000;2023-03-11T15:57:49;8.83;;;5.33;;
10805;SDS011;5455;53.224;6.000;2023-03-11T16:00:25;6.77;;;3.27;;
10805;SDS011;5455;53.224;6.000;2023-03-11T16:02:52;4.43;;;2.20;;
10805;SDS011;5455;53.224;6.000;2023-03-11T16:05:21;1.63;;;0.80;;
10805;SDS011;5455;53.224;6.000;2023-03-11T16:07:51;3.43;;;0.60;;
10805;SDS011;5455;53.224;6.000;2023-03-11T16:10:19;3.07;;;0.40;;
10805;SDS011;5455;53.224;6.000;2023-03-11T16:12:48;1.63;;;0.60;;
10805;SDS011;5455;53.224;6.000;2023-03-11T16:15:23;4.30;;;0.40;;
10805;SDS011;5455;53.224;6.000;2023-03-11T16:17:55;1.83;;;0.87;;
10805;SDS011;5455;53.224;6.000;2023-03-11T16:20:27;5.03;;;1.57;;
10805;SDS011;5455;53.224;6.000;2023-03-11T16:22:58;2.30;;;0.53;;
10805;SDS011;5455;53.224;6.000;2023-03-11T16:25:30;2.00;;;0.30;;
10805;SDS011;5455;53.224;6.000;2023-03-11T16:28:03;2.47;;;0.53;;
10805;SDS011;5455;53.224;6.000;2023-03-11T16:30:32;1.60;;;0.40;;
10805;SDS011;5455;53.224;6.000;2023-03-11T16:33:00;1.27;;;0.43;;
10805;SDS011;5455;53.224;6.000;2023-03-11T16:35:30;1.53;;;0.40;;
10805;SDS011;5455;53.224;6.000;2023-03-11T16:37:58;1.60;;;0.63;;
10805;SDS011;5455;53.224;6.000;2023-03-11T16:40:26;1.77;;;0.43;;
10805;SDS011;5455;53.224;6.000;2023-03-11T16:42:56;3.07;;;0.50;;
10805;SDS011;5455;53.224;6.000;2023-03-11T16:45:26;5.03;;;0.53;;
10805;SDS011;5455;53.224;6.000;2023-03-11T16:47:54;1.90;;;0.50;;
10805;SDS011;5455;53.224;6.000;2023-03-11T16:50:21;1.63;;;0.30;;
10805;SDS011;5455;53.224;6.000;2023-03-11T16:52:50;1.70;;;0.60;;
10805;SDS011;5455;53.224;6.000;2023-03-11T16:55:18;2.53;;;0.60;;
10805;SDS011;5455;53.224;6.000;2023-03-11T16:57:45;0.93;;;0.30;;
10805;SDS011;5455;53.224;6.000;2023-03-11T17:00:12;0.80;;;0.40;;
10805;SDS011;5455;53.224;6.000;2023-03-11T17:02:40;0.37;;;0.30;;
10805;SDS011;5455;53.224;6.000;2023-03-11T17:05:07;0.50;;;0.20;;
10805;SDS011;5455;53.224;6.000;2023-03-11T17:07:35;1.17;;;0.50;;